Jig Strike — WDC5769 — position and weather

sailwx.info

Track history (hours):
 
Tides and Currents Weather Stations Pressure Air Temp Water Temp Dewpoint Dewpoint Depression Visibility Wind Speed Wind Dir Waves Ship Positions

Jig Strike

Owner: Sea Adventure Sportfishing.Inc, Encinitas, CA. More information available from US FCC via Universal Licensing System and Coast Guard Vessel Documentation Center.

Last reported at 2017-Sep-21 02:26 UTC. Time now 2017-Sep-23 16:33 UTC.
Position N 32°43' W 117°14'.

Type: Passenger vessel. MMSI: 367046140.

Date/timePositionNaut miles runAvg speedWind from/ knotsBaromVisibWave heightAir tempDewpointWater temp
2017-Sep-21 02:26N 32°43' W 117°14'1 1.5
2017-Sep-21 02:00N 32°43' W 117°13'4 8.0
2017-Sep-21 01:30N 32°39' W 117°14'19 2.1
2017-Sep-20 16:34N 32°23' W 117°24'2 8.6
2017-Sep-20 16:20N 32°25' W 117°24'3 8.5
2017-Sep-20 16:00N 32°27' W 117°23'4 8.2
2017-Sep-20 15:30N 32°31' W 117°21'4 8.5
2017-Sep-20 15:00N 32°35' W 117°18'8 7.7
2017-Sep-20 14:00N 32°42' W 117°14'1 2.5
2017-Sep-20 13:30N 32°43' W 117°13'1 1.4
2017-Sep-20 13:00N 32°43' W 117°14'0 0.0
2017-Sep-20 12:28N 32°43' W 117°14'0 0.0
2017-Sep-20 12:00N 32°43' W 117°14'0 0.0
2017-Sep-20 11:30N 32°43' W 117°14'0 0.0
2017-Sep-20 10:58N 32°43' W 117°14'0 0.0
2017-Sep-20 10:14N 32°43' W 117°14'0 0.0
2017-Sep-20 10:01N 32°43' W 117°14'0 0.0
2017-Sep-20 09:24N 32°43' W 117°14'0 0.0
2017-Sep-20 08:55N 32°43' W 117°14'0 0.0
2017-Sep-20 08:25N 32°43' W 117°14'0 0.0
2017-Sep-20 07:52N 32°43' W 117°14'0 0.0
2017-Sep-20 07:28N 32°43' W 117°14'0 0.0
2017-Sep-20 06:58N 32°43' W 117°14'0 0.0
2017-Sep-20 06:30N 32°43' W 117°14'0 0.0
2017-Sep-20 06:00N 32°43' W 117°14'0 0.0
2017-Sep-20 03:39N 32°43' W 117°14'0 0.0
2017-Sep-20 03:20N 32°43' W 117°14'0 0.0
2017-Sep-20 02:55N 32°43' W 117°14'0 0.0
2017-Sep-20 02:18N 32°43' W 117°14'0 0.0
2017-Sep-20 01:49N 32°43' W 117°14'0 0.0
2017-Sep-20 01:27N 32°43' W 117°14'0 0.0
2017-Sep-20 01:00N 32°43' W 117°14'0 0.0
2017-Sep-20 00:30N 32°43' W 117°14'0 0.0
2017-Sep-20 00:00N 32°43' W 117°14'0 0.0
2017-Sep-19 23:31N 32°43' W 117°14'0 0.0
2017-Sep-19 22:58N 32°43' W 117°14'0 0.0
2017-Sep-19 22:29N 32°43' W 117°14'0 0.0
2017-Sep-19 21:58N 32°43' W 117°14'0 0.0
2017-Sep-19 21:30N 32°43' W 117°14'0 0.0
2017-Sep-19 21:00N 32°43' W 117°14'0 0.0
2017-Sep-19 20:31N 32°43' W 117°14'0 0.0
2017-Sep-19 20:00N 32°43' W 117°14'0 0.0
2017-Sep-19 19:30N 32°43' W 117°14'0 0.0
2017-Sep-19 19:00N 32°43' W 117°14'0 0.0
2017-Sep-19 18:30N 32°43' W 117°14'0 0.0
2017-Sep-19 18:00N 32°43' W 117°14'0 0.0
2017-Sep-19 17:30N 32°43' W 117°14'0 0.0
2017-Sep-19 17:00N 32°43' W 117°14'0 0.0
2017-Sep-19 16:30N 32°43' W 117°14'0 0.0
2017-Sep-19 16:00N 32°43' W 117°14'0 0.0
2017-Sep-19 15:30N 32°43' W 117°14'0 0.0
2017-Sep-19 15:01N 32°43' W 117°14'0 0.0
2017-Sep-19 14:25N 32°43' W 117°14'0 0.0
2017-Sep-19 13:46N 32°43' W 117°14'0 0.0
2017-Sep-19 13:28N 32°43' W 117°14'0 0.0
2017-Sep-19 12:58N 32°43' W 117°14'0 0.0
2017-Sep-19 12:27N 32°43' W 117°14'0 0.0
2017-Sep-19 11:58N 32°43' W 117°14'0 0.0
2017-Sep-19 11:20N 32°43' W 117°14'0 0.0
2017-Sep-19 10:58N 32°43' W 117°14'0 0.0
2017-Sep-19 10:28N 32°43' W 117°14'0 0.0
2017-Sep-19 10:00N 32°43' W 117°14'0 0.0
2017-Sep-19 09:30N 32°43' W 117°14'0 0.0
2017-Sep-19 08:59N 32°43' W 117°14'0 0.0
2017-Sep-19 08:30N 32°43' W 117°14'0 0.0
2017-Sep-19 07:59N 32°43' W 117°14'0 0.0
2017-Sep-19 07:28N 32°43' W 117°14'0 0.0
2017-Sep-19 07:00N 32°43' W 117°14'0 0.0
2017-Sep-19 06:30N 32°43' W 117°14'0 0.0
2017-Sep-19 06:00N 32°43' W 117°14'0 0.0
2017-Sep-19 05:27N 32°43' W 117°14'0 0.0
2017-Sep-19 04:59N 32°43' W 117°14'0 0.0
2017-Sep-19 01:54N 32°43' W 117°14'0 0.0
2017-Sep-19 01:30N 32°43' W 117°14'0 0.0
2017-Sep-19 01:00N 32°43' W 117°14'0 0.0
2017-Sep-19 00:29N 32°43' W 117°14'0 0.0
2017-Sep-19 00:00N 32°43' W 117°14'0 0.0
2017-Sep-18 23:27N 32°43' W 117°14'0 0.0
2017-Sep-18 23:00N 32°43' W 117°14'0 0.0
2017-Sep-18 22:24N 32°43' W 117°14'0 0.0
2017-Sep-18 21:59N 32°43' W 117°14'0 0.0
2017-Sep-18 21:22N 32°43' W 117°14'0 0.0
2017-Sep-18 21:00N 32°43' W 117°14'0 0.0
2017-Sep-18 20:29N 32°43' W 117°14'0 0.0
2017-Sep-18 19:51N 32°43' W 117°14'0 0.0
2017-Sep-18 19:26N 32°43' W 117°14'0 0.0
2017-Sep-18 18:53N 32°43' W 117°14'0 0.0
2017-Sep-18 18:25N 32°43' W 117°14'0 0.0
2017-Sep-18 17:57N 32°43' W 117°14'0 0.0
2017-Sep-18 17:19N 32°43' W 117°14'0 0.0
2017-Sep-18 17:00N 32°43' W 117°14'0 0.0
2017-Sep-18 16:27N 32°43' W 117°14'0 0.0
2017-Sep-18 16:00N 32°43' W 117°14'0 0.0
2017-Sep-18 15:30N 32°43' W 117°14'0 0.0
2017-Sep-18 14:57N 32°43' W 117°14'0 0.0
2017-Sep-18 14:28N 32°43' W 117°14'0 0.0
2017-Sep-18 13:57N 32°43' W 117°14'0 0.0
2017-Sep-18 13:19N 32°43' W 117°14'0 0.0
2017-Sep-18 13:00N 32°43' W 117°14'0 0.0
2017-Sep-18 12:30N 32°43' W 117°14'0 0.0
2017-Sep-18 12:00N 32°43' W 117°14'0 0.0
2017-Sep-18 11:29N 32°43' W 117°14'0 0.0
2017-Sep-18 11:00N 32°43' W 117°14'0 0.0
2017-Sep-18 10:30N 32°43' W 117°14'0 0.0
2017-Sep-18 10:00N 32°43' W 117°14'0 0.0
2017-Sep-18 09:30N 32°43' W 117°14'0 0.0
2017-Sep-18 09:00N 32°43' W 117°14'0 0.0
2017-Sep-18 08:29N 32°43' W 117°14'0 0.0
2017-Sep-18 07:59N 32°43' W 117°14'0 0.0
2017-Sep-18 07:26N 32°43' W 117°14'0 0.0
2017-Sep-18 06:59N 32°43' W 117°14'0 0.0
2017-Sep-18 06:26N 32°43' W 117°14'0 0.0
2017-Sep-18 05:56N 32°43' W 117°14'0 0.0
2017-Sep-18 05:29N 32°43' W 117°14'0 0.0
2017-Sep-18 05:00N 32°43' W 117°14'0 0.0
2017-Sep-18 04:25N 32°43' W 117°14'0 0.0
2017-Sep-18 03:47N 32°43' W 117°14'0 0.0
2017-Sep-18 03:19N 32°43' W 117°14'0 0.0
2017-Sep-18 02:50N 32°43' W 117°14'0 0.0
2017-Sep-18 02:27N 32°43' W 117°14'0 0.6
2017-Sep-18 02:00N 32°43' W 117°13'27 3.7
2017-Sep-17 18:36N 32°20' W 117°30'1 7.3
2017-Sep-17 18:29N 32°20' W 117°30'2 1.8
2017-Sep-17 17:31N 32°22' W 117°32'0 3.8
2017-Sep-17 17:30N 32°22' W 117°32'3 5.8
2017-Sep-17 17:00N 32°24' W 117°33'3 6.0
2017-Sep-17 16:30N 32°27' W 117°33'3 6.4
2017-Sep-17 16:00N 32°31' W 117°33'1 3.0
2017-Sep-17 15:30N 32°32' W 117°33'0 0.5
2017-Sep-17 15:00N 32°32' W 117°33'0 0.6
2017-Sep-17 14:31N 32°32' W 117°33'2 4.7
2017-Sep-17 14:01N 32°34' W 117°34'3 5.2
2017-Sep-17 13:30N 32°36' W 117°35'2 3.4
2017-Sep-17 13:01N 32°36' W 117°33'0 0.2
2017-Sep-17 12:30N 32°36' W 117°33'3 5.7
2017-Sep-17 12:00N 32°37' W 117°30'0 0.8
2017-Sep-17 11:30N 32°37' W 117°30'0 0.8
2017-Sep-17 11:00N 32°37' W 117°31'0 0.7
2017-Sep-17 10:30N 32°37' W 117°31'0 0.8
2017-Sep-17 10:00N 32°37' W 117°31'0 0.8
2017-Sep-17 09:30N 32°36' W 117°32'0 0.8
2017-Sep-17 09:00N 32°36' W 117°32'0 0.8
2017-Sep-17 08:31N 32°36' W 117°33'0 0.8
2017-Sep-17 08:01N 32°36' W 117°33'3 6.5
2017-Sep-17 07:30N 32°37' W 117°29'4 7.5
2017-Sep-17 07:00N 32°37' W 117°25'4 7.6
2017-Sep-17 06:30N 32°38' W 117°21'4 7.4
2017-Sep-17 06:00N 32°39' W 117°16'3 6.4
2017-Sep-17 05:30N 32°41' W 117°14'1 2.4
2017-Sep-17 05:00N 32°42' W 117°14'1 1.7
2017-Sep-17 04:21N 32°43' W 117°14'0 0.0
2017-Sep-17 03:58N 32°43' W 117°14'0 0.0
2017-Sep-17 03:15N 32°43' W 117°14'0 0.5
2017-Sep-17 03:00N 32°43' W 117°14'4 6.8
2017-Sep-17 02:28N 32°40' W 117°14'7 8.3
2017-Sep-17 01:39N 32°34' W 117°18'3 8.4
2017-Sep-17 01:21N 32°32' W 117°20'6 8.8
2017-Sep-17 00:42N 32°28' W 117°25'2 8.8
2017-Sep-17 00:26N 32°26' W 117°27'0 0.8
2017-Sep-17 00:01N 32°26' W 117°27'4 3.9
2017-Sep-16 23:04N 32°24' W 117°31'0 0.6
2017-Sep-16 23:00N 32°24' W 117°31'3 5.2
2017-Sep-16 22:30N 32°22' W 117°33'3 4.9
2017-Sep-16 21:57N 32°24' W 117°36'1 3.0
2017-Sep-16 21:30N 32°24' W 117°34'3 5.4
2017-Sep-16 21:00N 32°26' W 117°34'4 7.0
2017-Sep-16 20:31N 32°30' W 117°34'1 2.7
2017-Sep-16 20:00N 32°31' W 117°34'3 6.9
2017-Sep-16 19:31N 32°34' W 117°35'2 4.7
2017-Sep-16 19:00N 32°36' W 117°38'1 1.9
2017-Sep-16 18:31N 32°36' W 117°39'2 3.9
2017-Sep-16 18:01N 32°36' W 117°36'1 1.4
2017-Sep-16 17:31N 32°36' W 117°36'2 4.6
2017-Sep-16 17:00N 32°33' W 117°36'3 5.1
2017-Sep-16 16:30N 32°31' W 117°35'4 7.6
2017-Sep-16 16:01N 32°28' W 117°33'2 3.4
2017-Sep-16 15:31N 32°26' W 117°33'3 6.6
2017-Sep-16 15:00N 32°28' W 117°36'3 6.5
2017-Sep-16 14:30N 32°30' W 117°39'1 2.2
2017-Sep-16 14:00N 32°31' W 117°38'2 4.5
2017-Sep-16 13:30N 32°28' W 117°38'2 4.6
2017-Sep-16 13:00N 32°30' W 117°36'0 0.6
2017-Sep-16 12:31N 32°30' W 117°36'0 0.5
2017-Sep-16 12:01N 32°30' W 117°36'0 0.4
2017-Sep-16 11:31N 32°29' W 117°36'0 0.2
2017-Sep-16 11:00N 32°29' W 117°36'0 0.2
2017-Sep-16 10:30N 32°29' W 117°36'0 0.2
2017-Sep-16 10:00N 32°29' W 117°36'0 0.1
2017-Sep-16 09:30N 32°29' W 117°37'0 0.1
2017-Sep-16 09:01N 32°29' W 117°37'0 0.1
2017-Sep-16 08:30N 32°29' W 117°37'2 4.4
2017-Sep-16 08:00N 32°30' W 117°34'4 7.3
2017-Sep-16 07:30N 32°32' W 117°31'4 7.1
2017-Sep-16 07:00N 32°34' W 117°27'4 7.4
2017-Sep-16 06:30N 32°35' W 117°23'4 7.4
2017-Sep-16 06:01N 32°37' W 117°19'4 7.5
2017-Sep-16 05:31N 32°38' W 117°15'3 6.6
2017-Sep-16 05:00N 32°42' W 117°14'2 3.4
2017-Sep-16 04:30N 32°43' W 117°13'1 0.5
2017-Sep-16 03:28N 32°43' W 117°14'0 0.0
2017-Sep-16 02:58N 32°43' W 117°14'0 0.0
2017-Sep-16 02:18N 32°43' W 117°14'0 0.0
2017-Sep-16 02:00N 32°43' W 117°14'0 0.0
2017-Sep-16 01:29N 32°43' W 117°14'0 0.0
2017-Sep-16 01:00N 32°43' W 117°14'0 0.0
2017-Sep-16 00:30N 32°43' W 117°14'0 0.0
2017-Sep-15 23:58N 32°43' W 117°14'0 0.0
2017-Sep-15 23:27N 32°43' W 117°14'0 0.0
2017-Sep-15 23:00N 32°43' W 117°14'0 0.0
2017-Sep-15 22:30N 32°43' W 117°14'0 0.0
2017-Sep-15 21:57N 32°43' W 117°14'0 0.0
2017-Sep-15 21:27N 32°43' W 117°14'0 0.0
2017-Sep-15 21:00N 32°43' W 117°14'0 0.0
2017-Sep-15 20:30N 32°43' W 117°14'0 0.0
2017-Sep-15 20:00N 32°43' W 117°14'0 0.0
2017-Sep-15 19:28N 32°43' W 117°14'0 0.0
2017-Sep-15 19:00N 32°43' W 117°14'0 0.0
2017-Sep-15 18:29N 32°43' W 117°14'0 0.0
2017-Sep-15 18:00N 32°43' W 117°14'0 0.0
2017-Sep-15 17:29N 32°43' W 117°14'0 0.0
2017-Sep-15 17:00N 32°43' W 117°14'0 0.0
2017-Sep-15 16:30N 32°43' W 117°14'0 0.0
2017-Sep-15 16:00N 32°43' W 117°14'0 0.0
2017-Sep-15 15:30N 32°43' W 117°14'0 0.0
2017-Sep-15 15:00N 32°43' W 117°14'0 0.0
2017-Sep-15 14:30N 32°43' W 117°14'0 0.0
2017-Sep-15 14:00N 32°43' W 117°14'0 0.0
2017-Sep-15 13:30N 32°43' W 117°14'0 0.0
2017-Sep-15 13:00N 32°43' W 117°14'0 0.8
2017-Sep-15 12:30N 32°43' W 117°13'2 3.6
2017-Sep-15 12:00N 32°42' W 117°14'0 0.0
2017-Sep-15 11:30N 32°42' W 117°14'0 0.0
2017-Sep-15 11:01N 32°42' W 117°14'0 0.0
2017-Sep-15 10:30N 32°42' W 117°14'0 0.0
2017-Sep-15 10:00N 32°42' W 117°14'0 0.0
2017-Sep-15 09:30N 32°42' W 117°14'0 0.0
2017-Sep-15 09:00N 32°42' W 117°14'0 0.0
2017-Sep-15 08:30N 32°42' W 117°14'0 0.0
2017-Sep-15 08:00N 32°42' W 117°14'1 2.4
2017-Sep-15 07:26N 32°40' W 117°14'3 7.2
2017-Sep-15 07:00N 32°37' W 117°14'28 1.9
2017-Sep-14 16:33N 32°17' W 117°38'0 7.8
2017-Sep-14 16:31N 32°17' W 117°37'1 0.6
2017-Sep-14 15:10N 32°18' W 117°37'14 1.7
2017-Sep-14 07:13N 32°25' W 117°23'2 8.1
2017-Sep-14 06:58N 32°27' W 117°22'4 8.4
2017-Sep-14 06:30N 32°31' W 117°20'4 8.3
2017-Sep-14 06:00N 32°34' W 117°17'4 8.0
2017-Sep-14 05:30N 32°37' W 117°15'4 8.2
2017-Sep-14 05:01N 32°42' W 117°14'1 1.1
2017-Sep-14 04:31N 32°42' W 117°14'1 0.6
2017-Sep-14 02:16N 32°43' W 117°14'0 0.4
2017-Sep-14 01:59N 32°43' W 117°14'0 0.2
2017-Sep-14 01:21N 32°43' W 117°14'0 0.0
2017-Sep-14 01:00N 32°43' W 117°14'0 0.0
2017-Sep-14 00:29N 32°43' W 117°14'0 0.0
2017-Sep-13 23:55N 32°43' W 117°14'0 0.0
2017-Sep-13 23:30N 32°43' W 117°14'0 0.0
2017-Sep-13 22:59N 32°43' W 117°14'0 0.0
2017-Sep-13 22:27N 32°43' W 117°14'0 0.0
2017-Sep-13 21:35N 32°43' W 117°14'0 0.0
2017-Sep-13 21:28N 32°43' W 117°14'0 0.0
2017-Sep-13 21:00N 32°43' W 117°14'0 0.0
2017-Sep-13 15:14N 32°43' W 117°14'0 0.0
2017-Sep-13 14:11N 32°43' W 117°14'0 0.0
2017-Sep-13 13:49N 32°43' W 117°14'0 0.0
2017-Sep-13 12:03N 32°43' W 117°14'0 0.0
2017-Sep-13 11:48N 32°43' W 117°14'0 0.0
2017-Sep-13 03:16N 32°43' W 117°14'0 0.0
2017-Sep-13 00:57N 32°43' W 117°14'0 0.0
2017-Sep-13 00:29N 32°43' W 117°14'0 0.0
2017-Sep-12 23:56N 32°43' W 117°14'0 0.0
2017-Sep-12 23:28N 32°43' W 117°14'0 0.0
2017-Sep-12 22:54N 32°43' W 117°14'0 0.0
2017-Sep-12 22:30N 32°43' W 117°14'0 0.0
2017-Sep-12 21:59N 32°43' W 117°14'0 0.0
2017-Sep-12 21:30N 32°43' W 117°14'0 0.0
2017-Sep-12 20:59N 32°43' W 117°14'0 0.0
2017-Sep-12 20:30N 32°43' W 117°14'0 0.0
2017-Sep-12 19:59N 32°43' W 117°14'0 0.0
2017-Sep-12 19:30N 32°43' W 117°14'0 0.0
2017-Sep-12 19:00N 32°43' W 117°14'0 0.0
2017-Sep-12 18:29N 32°43' W 117°14'0 0.0
2017-Sep-12 17:59N 32°43' W 117°14'0 0.0
2017-Sep-12 17:30N 32°43' W 117°14'0 0.0
2017-Sep-12 16:59N 32°43' W 117°14'0 0.0
2017-Sep-12 16:30N 32°43' W 117°14'0 0.0
2017-Sep-12 16:00N 32°43' W 117°14'0 0.0
2017-Sep-12 15:30N 32°43' W 117°14'0 0.0
2017-Sep-12 15:00N 32°43' W 117°14'0 0.0
2017-Sep-12 14:29N 32°43' W 117°14'0 0.0
2017-Sep-12 13:59N 32°43' W 117°14'0 0.0
2017-Sep-12 13:29N 32°43' W 117°14'0 0.0
2017-Sep-12 13:00N 32°43' W 117°14'0 0.0
2017-Sep-12 12:30N 32°43' W 117°14'0 0.0
2017-Sep-12 12:00N 32°43' W 117°14'0 0.0
2017-Sep-12 11:30N 32°43' W 117°14'0 0.0
2017-Sep-12 10:58N 32°43' W 117°14'0 0.0
2017-Sep-12 10:29N 32°43' W 117°14'0 0.0
2017-Sep-12 09:58N 32°43' W 117°14'0 0.0
2017-Sep-12 09:30N 32°43' W 117°14'0 0.0
2017-Sep-12 09:00N 32°43' W 117°14'0 0.0
2017-Sep-12 08:30N 32°43' W 117°14'0 0.0
2017-Sep-12 08:00N 32°43' W 117°14'0 0.0
2017-Sep-12 07:29N 32°43' W 117°14'0 0.0
2017-Sep-12 07:00N 32°43' W 117°14'0 0.0
2017-Sep-12 06:30N 32°43' W 117°14'0 0.0
2017-Sep-12 05:59N 32°43' W 117°14'0 0.0
2017-Sep-12 05:30N 32°43' W 117°14'0 0.0
2017-Sep-12 04:38N 32°43' W 117°14'0 0.0
2017-Sep-12 02:12N 32°43' W 117°14'0 0.0
2017-Sep-12 01:54N 32°43' W 117°14'0 0.0
2017-Sep-12 01:30N 32°43' W 117°14'0 0.0
2017-Sep-12 00:54N 32°43' W 117°14'0 0.0
2017-Sep-12 00:25N 32°43' W 117°14'0 0.0
2017-Sep-12 00:00N 32°43' W 117°14'0 0.0
2017-Sep-11 23:28N 32°43' W 117°14'0 0.0
2017-Sep-11 22:57N 32°43' W 117°14'0 0.0
2017-Sep-11 22:29N 32°43' W 117°14'0 0.0
2017-Sep-11 21:58N 32°43' W 117°14'0 0.0
2017-Sep-11 21:30N 32°43' W 117°14'0 0.0
2017-Sep-11 21:00N 32°43' W 117°14'0 0.0
2017-Sep-11 20:30N 32°43' W 117°14'0 0.0
2017-Sep-11 20:00N 32°43' W 117°14'0 0.0
2017-Sep-11 19:30N 32°43' W 117°14'0 0.0
2017-Sep-11 19:00N 32°43' W 117°14'0 0.0
2017-Sep-11 18:30N 32°43' W 117°14'0 0.0
2017-Sep-11 18:00N 32°43' W 117°14'0 0.0
2017-Sep-11 17:30N 32°43' W 117°14'0 0.0
2017-Sep-11 17:00N 32°43' W 117°14'0 0.0
2017-Sep-11 16:30N 32°43' W 117°14'0 0.0
2017-Sep-11 16:00N 32°43' W 117°14'0 0.0
2017-Sep-11 15:30N 32°43' W 117°14'0 0.0
2017-Sep-11 15:00N 32°43' W 117°14'0 0.0
2017-Sep-11 14:30N 32°43' W 117°14'0 0.0
2017-Sep-11 14:00N 32°43' W 117°14'0 0.0
2017-Sep-11 13:30N 32°43' W 117°14'0 0.0
2017-Sep-11 13:00N 32°43' W 117°14'0 0.0
2017-Sep-11 12:30N 32°43' W 117°14'0 0.0
2017-Sep-11 12:00N 32°43' W 117°14'0 0.0
2017-Sep-11 11:30N 32°43' W 117°14'0 0.0
2017-Sep-11 11:00N 32°43' W 117°14'0 0.0
2017-Sep-11 10:30N 32°43' W 117°14'0 0.0
2017-Sep-11 10:00N 32°43' W 117°14'0 0.0
2017-Sep-11 09:30N 32°43' W 117°14'0 0.0
2017-Sep-11 09:00N 32°43' W 117°14'0 0.0
2017-Sep-11 08:30N 32°43' W 117°14'0 0.0
2017-Sep-11 08:00N 32°43' W 117°14'0 0.0
2017-Sep-11 07:30N 32°43' W 117°14'0 0.0
2017-Sep-11 07:00N 32°43' W 117°14'0 0.0
2017-Sep-11 06:30N 32°43' W 117°14'0 0.0
2017-Sep-11 06:00N 32°43' W 117°14'0 0.0
2017-Sep-11 05:26N 32°43' W 117°14'0 0.0
2017-Sep-11 04:59N 32°43' W 117°14'0 0.0
2017-Sep-11 04:29N 32°43' W 117°14'0 0.0
2017-Sep-11 03:58N 32°43' W 117°14'0 0.0
2017-Sep-11 03:30N 32°43' W 117°14'0 0.0
2017-Sep-11 02:44N 32°43' W 117°14'  
Track history (hours):
 
Tides and Currents Weather Stations Pressure Air Temp Water Temp Dewpoint Dewpoint Depression Visibility Wind Speed Wind Dir Waves Ship Positions

Jig Strike

Owner: Sea Adventure Sportfishing.Inc, Encinitas, CA. More information available from US FCC via Universal Licensing System and Coast Guard Vessel Documentation Center.

Last reported at 2017-Sep-21 02:26 UTC. Time now 2017-Sep-23 16:33 UTC.
Position N 32°43' W 117°14'.

Type: Passenger vessel. MMSI: 367046140.

Date/timePositionNaut miles runAvg speedWind from/ knotsBaromVisibWave heightAir tempDewpointWater temp
2017-Sep-21 02:26N 32°43' W 117°14'1 1.5
2017-Sep-21 02:00N 32°43' W 117°13'4 8.0
2017-Sep-21 01:30N 32°39' W 117°14'19 2.1
2017-Sep-20 16:34N 32°23' W 117°24'2 8.6
2017-Sep-20 16:20N 32°25' W 117°24'3 8.5
2017-Sep-20 16:00N 32°27' W 117°23'4 8.2
2017-Sep-20 15:30N 32°31' W 117°21'4 8.5
2017-Sep-20 15:00N 32°35' W 117°18'8 7.7
2017-Sep-20 14:00N 32°42' W 117°14'1 2.5
2017-Sep-20 13:30N 32°43' W 117°13'1 1.4
2017-Sep-20 13:00N 32°43' W 117°14'0 0.0
2017-Sep-20 12:28N 32°43' W 117°14'0 0.0
2017-Sep-20 12:00N 32°43' W 117°14'0 0.0
2017-Sep-20 11:30N 32°43' W 117°14'0 0.0
2017-Sep-20 10:58N 32°43' W 117°14'0 0.0
2017-Sep-20 10:14N 32°43' W 117°14'0 0.0
2017-Sep-20 10:01N 32°43' W 117°14'0 0.0
2017-Sep-20 09:24N 32°43' W 117°14'0 0.0
2017-Sep-20 08:55N 32°43' W 117°14'0 0.0
2017-Sep-20 08:25N 32°43' W 117°14'0 0.0
2017-Sep-20 07:52N 32°43' W 117°14'0 0.0
2017-Sep-20 07:28N 32°43' W 117°14'0 0.0
2017-Sep-20 06:58N 32°43' W 117°14'0 0.0
2017-Sep-20 06:30N 32°43' W 117°14'0 0.0
2017-Sep-20 06:00N 32°43' W 117°14'0 0.0
2017-Sep-20 03:39N 32°43' W 117°14'0 0.0
2017-Sep-20 03:20N 32°43' W 117°14'0 0.0
2017-Sep-20 02:55N 32°43' W 117°14'0 0.0
2017-Sep-20 02:18N 32°43' W 117°14'0 0.0
2017-Sep-20 01:49N 32°43' W 117°14'0 0.0
2017-Sep-20 01:27N 32°43' W 117°14'0 0.0
2017-Sep-20 01:00N 32°43' W 117°14'0 0.0
2017-Sep-20 00:30N 32°43' W 117°14'0 0.0
2017-Sep-20 00:00N 32°43' W 117°14'0 0.0
2017-Sep-19 23:31N 32°43' W 117°14'0 0.0
2017-Sep-19 22:58N 32°43' W 117°14'0 0.0
2017-Sep-19 22:29N 32°43' W 117°14'0 0.0
2017-Sep-19 21:58N 32°43' W 117°14'0 0.0
2017-Sep-19 21:30N 32°43' W 117°14'0 0.0
2017-Sep-19 21:00N 32°43' W 117°14'0 0.0
2017-Sep-19 20:31N 32°43' W 117°14'0 0.0
2017-Sep-19 20:00N 32°43' W 117°14'0 0.0
2017-Sep-19 19:30N 32°43' W 117°14'0 0.0
2017-Sep-19 19:00N 32°43' W 117°14'0 0.0
2017-Sep-19 18:30N 32°43' W 117°14'0 0.0
2017-Sep-19 18:00N 32°43' W 117°14'0 0.0
2017-Sep-19 17:30N 32°43' W 117°14'0 0.0
2017-Sep-19 17:00N 32°43' W 117°14'0 0.0
2017-Sep-19 16:30N 32°43' W 117°14'0 0.0
2017-Sep-19 16:00N 32°43' W 117°14'0 0.0
2017-Sep-19 15:30N 32°43' W 117°14'0 0.0
2017-Sep-19 15:01N 32°43' W 117°14'0 0.0
2017-Sep-19 14:25N 32°43' W 117°14'0 0.0
2017-Sep-19 13:46N 32°43' W 117°14'0 0.0
2017-Sep-19 13:28N 32°43' W 117°14'0 0.0
2017-Sep-19 12:58N 32°43' W 117°14'0 0.0
2017-Sep-19 12:27N 32°43' W 117°14'0 0.0
2017-Sep-19 11:58N 32°43' W 117°14'0 0.0
2017-Sep-19 11:20N 32°43' W 117°14'0 0.0
2017-Sep-19 10:58N 32°43' W 117°14'0 0.0
2017-Sep-19 10:28N 32°43' W 117°14'0 0.0
2017-Sep-19 10:00N 32°43' W 117°14'0 0.0
2017-Sep-19 09:30N 32°43' W 117°14'0 0.0
2017-Sep-19 08:59N 32°43' W 117°14'0 0.0
2017-Sep-19 08:30N 32°43' W 117°14'0 0.0
2017-Sep-19 07:59N 32°43' W 117°14'0 0.0
2017-Sep-19 07:28N 32°43' W 117°14'0 0.0
2017-Sep-19 07:00N 32°43' W 117°14'0 0.0
2017-Sep-19 06:30N 32°43' W 117°14'0 0.0
2017-Sep-19 06:00N 32°43' W 117°14'0 0.0
2017-Sep-19 05:27N 32°43' W 117°14'0 0.0
2017-Sep-19 04:59N 32°43' W 117°14'0 0.0
2017-Sep-19 01:54N 32°43' W 117°14'0 0.0
2017-Sep-19 01:30N 32°43' W 117°14'0 0.0
2017-Sep-19 01:00N 32°43' W 117°14'0 0.0
2017-Sep-19 00:29N 32°43' W 117°14'0 0.0
2017-Sep-19 00:00N 32°43' W 117°14'0 0.0
2017-Sep-18 23:27N 32°43' W 117°14'0 0.0
2017-Sep-18 23:00N 32°43' W 117°14'0 0.0
2017-Sep-18 22:24N 32°43' W 117°14'0 0.0
2017-Sep-18 21:59N 32°43' W 117°14'0 0.0
2017-Sep-18 21:22N 32°43' W 117°14'0 0.0
2017-Sep-18 21:00N 32°43' W 117°14'0 0.0
2017-Sep-18 20:29N 32°43' W 117°14'0 0.0
2017-Sep-18 19:51N 32°43' W 117°14'0 0.0
2017-Sep-18 19:26N 32°43' W 117°14'0 0.0
2017-Sep-18 18:53N 32°43' W 117°14'0 0.0
2017-Sep-18 18:25N 32°43' W 117°14'0 0.0
2017-Sep-18 17:57N 32°43' W 117°14'0 0.0
2017-Sep-18 17:19N 32°43' W 117°14'0 0.0
2017-Sep-18 17:00N 32°43' W 117°14'0 0.0
2017-Sep-18 16:27N 32°43' W 117°14'0 0.0
2017-Sep-18 16:00N 32°43' W 117°14'0 0.0
2017-Sep-18 15:30N 32°43' W 117°14'0 0.0
2017-Sep-18 14:57N 32°43' W 117°14'0 0.0
2017-Sep-18 14:28N 32°43' W 117°14'0 0.0
2017-Sep-18 13:57N 32°43' W 117°14'0 0.0
2017-Sep-18 13:19N 32°43' W 117°14'0 0.0
2017-Sep-18 13:00N 32°43' W 117°14'0 0.0
2017-Sep-18 12:30N 32°43' W 117°14'0 0.0
2017-Sep-18 12:00N 32°43' W 117°14'0 0.0
2017-Sep-18 11:29N 32°43' W 117°14'0 0.0
2017-Sep-18 11:00N 32°43' W 117°14'0 0.0
2017-Sep-18 10:30N 32°43' W 117°14'0 0.0
2017-Sep-18 10:00N 32°43' W 117°14'0 0.0
2017-Sep-18 09:30N 32°43' W 117°14'0 0.0
2017-Sep-18 09:00N 32°43' W 117°14'0 0.0
2017-Sep-18 08:29N 32°43' W 117°14'0 0.0
2017-Sep-18 07:59N 32°43' W 117°14'0 0.0
2017-Sep-18 07:26N 32°43' W 117°14'0 0.0
2017-Sep-18 06:59N 32°43' W 117°14'0 0.0
2017-Sep-18 06:26N 32°43' W 117°14'0 0.0
2017-Sep-18 05:56N 32°43' W 117°14'0 0.0
2017-Sep-18 05:29N 32°43' W 117°14'0 0.0
2017-Sep-18 05:00N 32°43' W 117°14'0 0.0
2017-Sep-18 04:25N 32°43' W 117°14'0 0.0
2017-Sep-18 03:47N 32°43' W 117°14'0 0.0
2017-Sep-18 03:19N 32°43' W 117°14'0 0.0
2017-Sep-18 02:50N 32°43' W 117°14'0 0.0
2017-Sep-18 02:27N 32°43' W 117°14'0 0.6
2017-Sep-18 02:00N 32°43' W 117°13'27 3.7
2017-Sep-17 18:36N 32°20' W 117°30'1 7.3
2017-Sep-17 18:29N 32°20' W 117°30'2 1.8
2017-Sep-17 17:31N 32°22' W 117°32'0 3.8
2017-Sep-17 17:30N 32°22' W 117°32'3 5.8
2017-Sep-17 17:00N 32°24' W 117°33'3 6.0
2017-Sep-17 16:30N 32°27' W 117°33'3 6.4
2017-Sep-17 16:00N 32°31' W 117°33'1 3.0
2017-Sep-17 15:30N 32°32' W 117°33'0 0.5
2017-Sep-17 15:00N 32°32' W 117°33'0 0.6
2017-Sep-17 14:31N 32°32' W 117°33'2 4.7
2017-Sep-17 14:01N 32°34' W 117°34'3 5.2
2017-Sep-17 13:30N 32°36' W 117°35'2 3.4
2017-Sep-17 13:01N 32°36' W 117°33'0 0.2
2017-Sep-17 12:30N 32°36' W 117°33'3 5.7
2017-Sep-17 12:00N 32°37' W 117°30'0 0.8
2017-Sep-17 11:30N 32°37' W 117°30'0 0.8
2017-Sep-17 11:00N 32°37' W 117°31'0 0.7
2017-Sep-17 10:30N 32°37' W 117°31'0 0.8
2017-Sep-17 10:00N 32°37' W 117°31'0 0.8
2017-Sep-17 09:30N 32°36' W 117°32'0 0.8
2017-Sep-17 09:00N 32°36' W 117°32'0 0.8
2017-Sep-17 08:31N 32°36' W 117°33'0 0.8
2017-Sep-17 08:01N 32°36' W 117°33'3 6.5
2017-Sep-17 07:30N 32°37' W 117°29'4 7.5
2017-Sep-17 07:00N 32°37' W 117°25'4 7.6
2017-Sep-17 06:30N 32°38' W 117°21'4 7.4
2017-Sep-17 06:00N 32°39' W 117°16'3 6.4
2017-Sep-17 05:30N 32°41' W 117°14'1 2.4
2017-Sep-17 05:00N 32°42' W 117°14'1 1.7
2017-Sep-17 04:21N 32°43' W 117°14'0 0.0
2017-Sep-17 03:58N 32°43' W 117°14'0 0.0
2017-Sep-17 03:15N 32°43' W 117°14'0 0.5
2017-Sep-17 03:00N 32°43' W 117°14'4 6.8
2017-Sep-17 02:28N 32°40' W 117°14'7 8.3
2017-Sep-17 01:39N 32°34' W 117°18'3 8.4
2017-Sep-17 01:21N 32°32' W 117°20'6 8.8
2017-Sep-17 00:42N 32°28' W 117°25'2 8.8
2017-Sep-17 00:26N 32°26' W 117°27'0 0.8
2017-Sep-17 00:01N 32°26' W 117°27'4 3.9
2017-Sep-16 23:04N 32°24' W 117°31'0 0.6
2017-Sep-16 23:00N 32°24' W 117°31'3 5.2
2017-Sep-16 22:30N 32°22' W 117°33'3 4.9
2017-Sep-16 21:57N 32°24' W 117°36'1 3.0
2017-Sep-16 21:30N 32°24' W 117°34'3 5.4
2017-Sep-16 21:00N 32°26' W 117°34'4 7.0
2017-Sep-16 20:31N 32°30' W 117°34'1 2.7
2017-Sep-16 20:00N 32°31' W 117°34'3 6.9
2017-Sep-16 19:31N 32°34' W 117°35'2 4.7
2017-Sep-16 19:00N 32°36' W 117°38'1 1.9
2017-Sep-16 18:31N 32°36' W 117°39'2 3.9
2017-Sep-16 18:01N 32°36' W 117°36'1 1.4
2017-Sep-16 17:31N 32°36' W 117°36'2 4.6
2017-Sep-16 17:00N 32°33' W 117°36'3 5.1
2017-Sep-16 16:30N 32°31' W 117°35'4 7.6
2017-Sep-16 16:01N 32°28' W 117°33'2 3.4
2017-Sep-16 15:31N 32°26' W 117°33'3 6.6
2017-Sep-16 15:00N 32°28' W 117°36'3 6.5
2017-Sep-16 14:30N 32°30' W 117°39'1 2.2
2017-Sep-16 14:00N 32°31' W 117°38'2 4.5
2017-Sep-16 13:30N 32°28' W 117°38'2 4.6
2017-Sep-16 13:00N 32°30' W 117°36'0 0.6
2017-Sep-16 12:31N 32°30' W 117°36'0 0.5
2017-Sep-16 12:01N 32°30' W 117°36'0 0.4
2017-Sep-16 11:31N 32°29' W 117°36'0 0.2
2017-Sep-16 11:00N 32°29' W 117°36'0 0.2
2017-Sep-16 10:30N 32°29' W 117°36'0 0.2
2017-Sep-16 10:00N 32°29' W 117°36'0 0.1
2017-Sep-16 09:30N 32°29' W 117°37'0 0.1
2017-Sep-16 09:01N 32°29' W 117°37'0 0.1
2017-Sep-16 08:30N 32°29' W 117°37'2 4.4
2017-Sep-16 08:00N 32°30' W 117°34'4 7.3
2017-Sep-16 07:30N 32°32' W 117°31'4 7.1
2017-Sep-16 07:00N 32°34' W 117°27'4 7.4
2017-Sep-16 06:30N 32°35' W 117°23'4 7.4
2017-Sep-16 06:01N 32°37' W 117°19'4 7.5
2017-Sep-16 05:31N 32°38' W 117°15'3 6.6
2017-Sep-16 05:00N 32°42' W 117°14'2 3.4
2017-Sep-16 04:30N 32°43' W 117°13'1 0.5
2017-Sep-16 03:28N 32°43' W 117°14'0 0.0
2017-Sep-16 02:58N 32°43' W 117°14'0 0.0
2017-Sep-16 02:18N 32°43' W 117°14'0 0.0
2017-Sep-16 02:00N 32°43' W 117°14'0 0.0
2017-Sep-16 01:29N 32°43' W 117°14'0 0.0
2017-Sep-16 01:00N 32°43' W 117°14'0 0.0
2017-Sep-16 00:30N 32°43' W 117°14'0 0.0
2017-Sep-15 23:58N 32°43' W 117°14'0 0.0
2017-Sep-15 23:27N 32°43' W 117°14'0 0.0
2017-Sep-15 23:00N 32°43' W 117°14'0 0.0
2017-Sep-15 22:30N 32°43' W 117°14'0 0.0
2017-Sep-15 21:57N 32°43' W 117°14'0 0.0
2017-Sep-15 21:27N 32°43' W 117°14'0 0.0
2017-Sep-15 21:00N 32°43' W 117°14'0 0.0
2017-Sep-15 20:30N 32°43' W 117°14'0 0.0
2017-Sep-15 20:00N 32°43' W 117°14'0 0.0
2017-Sep-15 19:28N 32°43' W 117°14'0 0.0
2017-Sep-15 19:00N 32°43' W 117°14'0 0.0
2017-Sep-15 18:29N 32°43' W 117°14'0 0.0
2017-Sep-15 18:00N 32°43' W 117°14'0 0.0
2017-Sep-15 17:29N 32°43' W 117°14'0 0.0
2017-Sep-15 17:00N 32°43' W 117°14'0 0.0
2017-Sep-15 16:30N 32°43' W 117°14'0 0.0
2017-Sep-15 16:00N 32°43' W 117°14'0 0.0
2017-Sep-15 15:30N 32°43' W 117°14'0 0.0
2017-Sep-15 15:00N 32°43' W 117°14'0 0.0
2017-Sep-15 14:30N 32°43' W 117°14'0 0.0
2017-Sep-15 14:00N 32°43' W 117°14'0 0.0
2017-Sep-15 13:30N 32°43' W 117°14'0 0.0
2017-Sep-15 13:00N 32°43' W 117°14'0 0.8
2017-Sep-15 12:30N 32°43' W 117°13'2 3.6
2017-Sep-15 12:00N 32°42' W 117°14'0 0.0
2017-Sep-15 11:30N 32°42' W 117°14'0 0.0
2017-Sep-15 11:01N 32°42' W 117°14'0 0.0
2017-Sep-15 10:30N 32°42' W 117°14'0 0.0
2017-Sep-15 10:00N 32°42' W 117°14'0 0.0
2017-Sep-15 09:30N 32°42' W 117°14'0 0.0
2017-Sep-15 09:00N 32°42' W 117°14'0 0.0
2017-Sep-15 08:30N 32°42' W 117°14'0 0.0
2017-Sep-15 08:00N 32°42' W 117°14'1 2.4
2017-Sep-15 07:26N 32°40' W 117°14'3 7.2
2017-Sep-15 07:00N 32°37' W 117°14'28 1.9
2017-Sep-14 16:33N 32°17' W 117°38'0 7.8
2017-Sep-14 16:31N 32°17' W 117°37'1 0.6
2017-Sep-14 15:10N 32°18' W 117°37'14 1.7
2017-Sep-14 07:13N 32°25' W 117°23'2 8.1
2017-Sep-14 06:58N 32°27' W 117°22'4 8.4
2017-Sep-14 06:30N 32°31' W 117°20'4 8.3
2017-Sep-14 06:00N 32°34' W 117°17'4 8.0
2017-Sep-14 05:30N 32°37' W 117°15'4 8.2
2017-Sep-14 05:01N 32°42' W 117°14'1 1.1
2017-Sep-14 04:31N 32°42' W 117°14'1 0.6
2017-Sep-14 02:16N 32°43' W 117°14'0 0.4
2017-Sep-14 01:59N 32°43' W 117°14'0 0.2
2017-Sep-14 01:21N 32°43' W 117°14'0 0.0
2017-Sep-14 01:00N 32°43' W 117°14'0 0.0
2017-Sep-14 00:29N 32°43' W 117°14'0 0.0
2017-Sep-13 23:55N 32°43' W 117°14'0 0.0
2017-Sep-13 23:30N 32°43' W 117°14'0 0.0
2017-Sep-13 22:59N 32°43' W 117°14'0 0.0
2017-Sep-13 22:27N 32°43' W 117°14'0 0.0
2017-Sep-13 21:35N 32°43' W 117°14'0 0.0
2017-Sep-13 21:28N 32°43' W 117°14'0 0.0
2017-Sep-13 21:00N 32°43' W 117°14'0 0.0
2017-Sep-13 15:14N 32°43' W 117°14'0 0.0
2017-Sep-13 14:11N 32°43' W 117°14'0 0.0
2017-Sep-13 13:49N 32°43' W 117°14'0 0.0
2017-Sep-13 12:03N 32°43' W 117°14'0 0.0
2017-Sep-13 11:48N 32°43' W 117°14'0 0.0
2017-Sep-13 03:16N 32°43' W 117°14'0 0.0
2017-Sep-13 00:57N 32°43' W 117°14'0 0.0
2017-Sep-13 00:29N 32°43' W 117°14'0 0.0
2017-Sep-12 23:56N 32°43' W 117°14'0 0.0
2017-Sep-12 23:28N 32°43' W 117°14'0 0.0
2017-Sep-12 22:54N 32°43' W 117°14'0 0.0
2017-Sep-12 22:30N 32°43' W 117°14'0 0.0
2017-Sep-12 21:59N 32°43' W 117°14'0 0.0
2017-Sep-12 21:30N 32°43' W 117°14'0 0.0
2017-Sep-12 20:59N 32°43' W 117°14'0 0.0
2017-Sep-12 20:30N 32°43' W 117°14'0 0.0
2017-Sep-12 19:59N 32°43' W 117°14'0 0.0
2017-Sep-12 19:30N 32°43' W 117°14'0 0.0
2017-Sep-12 19:00N 32°43' W 117°14'0 0.0
2017-Sep-12 18:29N 32°43' W 117°14'0 0.0
2017-Sep-12 17:59N 32°43' W 117°14'0 0.0
2017-Sep-12 17:30N 32°43' W 117°14'0 0.0
2017-Sep-12 16:59N 32°43' W 117°14'0 0.0
2017-Sep-12 16:30N 32°43' W 117°14'0 0.0
2017-Sep-12 16:00N 32°43' W 117°14'0 0.0
2017-Sep-12 15:30N 32°43' W 117°14'0 0.0
2017-Sep-12 15:00N 32°43' W 117°14'0 0.0
2017-Sep-12 14:29N 32°43' W 117°14'0 0.0
2017-Sep-12 13:59N 32°43' W 117°14'0 0.0
2017-Sep-12 13:29N 32°43' W 117°14'0 0.0
2017-Sep-12 13:00N 32°43' W 117°14'0 0.0
2017-Sep-12 12:30N 32°43' W 117°14'0 0.0
2017-Sep-12 12:00N 32°43' W 117°14'0 0.0
2017-Sep-12 11:30N 32°43' W 117°14'0 0.0
2017-Sep-12 10:58N 32°43' W 117°14'0 0.0
2017-Sep-12 10:29N 32°43' W 117°14'0 0.0
2017-Sep-12 09:58N 32°43' W 117°14'0 0.0
2017-Sep-12 09:30N 32°43' W 117°14'0 0.0
2017-Sep-12 09:00N 32°43' W 117°14'0 0.0
2017-Sep-12 08:30N 32°43' W 117°14'0 0.0
2017-Sep-12 08:00N 32°43' W 117°14'0 0.0
2017-Sep-12 07:29N 32°43' W 117°14'0 0.0
2017-Sep-12 07:00N 32°43' W 117°14'0 0.0
2017-Sep-12 06:30N 32°43' W 117°14'0 0.0
2017-Sep-12 05:59N 32°43' W 117°14'0 0.0
2017-Sep-12 05:30N 32°43' W 117°14'0 0.0
2017-Sep-12 04:38N 32°43' W 117°14'0 0.0
2017-Sep-12 02:12N 32°43' W 117°14'0 0.0
2017-Sep-12 01:54N 32°43' W 117°14'0 0.0
2017-Sep-12 01:30N 32°43' W 117°14'0 0.0
2017-Sep-12 00:54N 32°43' W 117°14'0 0.0
2017-Sep-12 00:25N 32°43' W 117°14'0 0.0
2017-Sep-12 00:00N 32°43' W 117°14'0 0.0
2017-Sep-11 23:28N 32°43' W 117°14'0 0.0
2017-Sep-11 22:57N 32°43' W 117°14'0 0.0
2017-Sep-11 22:29N 32°43' W 117°14'0 0.0
2017-Sep-11 21:58N 32°43' W 117°14'0 0.0
2017-Sep-11 21:30N 32°43' W 117°14'0 0.0
2017-Sep-11 21:00N 32°43' W 117°14'0 0.0
2017-Sep-11 20:30N 32°43' W 117°14'0 0.0
2017-Sep-11 20:00N 32°43' W 117°14'0 0.0
2017-Sep-11 19:30N 32°43' W 117°14'0 0.0
2017-Sep-11 19:00N 32°43' W 117°14'0 0.0
2017-Sep-11 18:30N 32°43' W 117°14'0 0.0
2017-Sep-11 18:00N 32°43' W 117°14'0 0.0
2017-Sep-11 17:30N 32°43' W 117°14'0 0.0
2017-Sep-11 17:00N 32°43' W 117°14'0 0.0
2017-Sep-11 16:30N 32°43' W 117°14'0 0.0
2017-Sep-11 16:00N 32°43' W 117°14'0 0.0
2017-Sep-11 15:30N 32°43' W 117°14'0 0.0
2017-Sep-11 15:00N 32°43' W 117°14'0 0.0
2017-Sep-11 14:30N 32°43' W 117°14'0 0.0
2017-Sep-11 14:00N 32°43' W 117°14'0 0.0
2017-Sep-11 13:30N 32°43' W 117°14'0 0.0
2017-Sep-11 13:00N 32°43' W 117°14'0 0.0
2017-Sep-11 12:30N 32°43' W 117°14'0 0.0
2017-Sep-11 12:00N 32°43' W 117°14'0 0.0
2017-Sep-11 11:30N 32°43' W 117°14'0 0.0
2017-Sep-11 11:00N 32°43' W 117°14'0 0.0
2017-Sep-11 10:30N 32°43' W 117°14'0 0.0
2017-Sep-11 10:00N 32°43' W 117°14'0 0.0
2017-Sep-11 09:30N 32°43' W 117°14'0 0.0
2017-Sep-11 09:00N 32°43' W 117°14'0 0.0
2017-Sep-11 08:30N 32°43' W 117°14'0 0.0
2017-Sep-11 08:00N 32°43' W 117°14'0 0.0
2017-Sep-11 07:30N 32°43' W 117°14'0 0.0
2017-Sep-11 07:00N 32°43' W 117°14'0 0.0
2017-Sep-11 06:30N 32°43' W 117°14'0 0.0
2017-Sep-11 06:00N 32°43' W 117°14'0 0.0
2017-Sep-11 05:26N 32°43' W 117°14'0 0.0
2017-Sep-11 04:59N 32°43' W 117°14'0 0.0
2017-Sep-11 04:29N 32°43' W 117°14'0 0.0
2017-Sep-11 03:58N 32°43' W 117°14'0 0.0
2017-Sep-11 03:30N 32°43' W 117°14'0 0.0
2017-Sep-11 02:44N 32°43' W 117°14'  

Dump ship's entire track history